sensor_id;sensor_type;location;lat;lon;timestamp;pressure;altitude;pressure_sealevel;temperature;humidity
35892;BME280;21993;42.672;23.296;2023-02-20T00:01:17;95011.44;;;14.09;47.67
35892;BME280;21993;42.672;23.296;2023-02-20T00:03:45;95010.00;;;13.97;47.96
35892;BME280;21993;42.672;23.296;2023-02-20T00:06:10;95017.09;;;13.97;47.83
35892;BME280;21993;42.672;23.296;2023-02-20T00:08:36;95009.56;;;14.02;47.92
35892;BME280;21993;42.672;23.296;2023-02-20T00:11:01;95002.91;;;13.80;48.39
35892;BME280;21993;42.672;23.296;2023-02-20T00:13:27;95008.75;;;13.74;49.00
35892;BME280;21993;42.672;23.296;2023-02-20T00:15:54;95007.09;;;13.73;49.14
35892;BME280;21993;42.672;23.296;2023-02-20T00:18:20;95009.66;;;13.65;48.88
35892;BME280;21993;42.672;23.296;2023-02-20T00:20:45;95003.81;;;13.61;49.15
35892;BME280;21993;42.672;23.296;2023-02-20T00:23:10;95005.50;;;13.62;49.31
35892;BME280;21993;42.672;23.296;2023-02-20T00:25:36;95010.56;;;13.46;49.64
35892;BME280;21993;42.672;23.296;2023-02-20T00:28:01;95002.56;;;13.38;50.42
35892;BME280;21993;42.672;23.296;2023-02-20T00:30:27;95013.53;;;13.33;50.78
35892;BME280;21993;42.672;23.296;2023-02-20T00:32:54;95010.09;;;13.23;50.76
35892;BME280;21993;42.672;23.296;2023-02-20T00:35:22;95009.25;;;13.32;50.58
35892;BME280;21993;42.672;23.296;2023-02-20T00:37:48;95007.13;;;13.45;50.20
35892;BME280;21993;42.672;23.296;2023-02-20T00:40:15;95010.38;;;13.20;51.12
35892;BME280;21993;42.672;23.296;2023-02-20T00:42:40;95002.47;;;13.20;51.14
35892;BME280;21993;42.672;23.296;2023-02-20T00:45:06;94993.13;;;13.35;50.57
35892;BME280;21993;42.672;23.296;2023-02-20T00:47:32;95015.19;;;13.34;50.68
35892;BME280;21993;42.672;23.296;2023-02-20T00:49:58;95012.34;;;13.55;50.34
35892;BME280;21993;42.672;23.296;2023-02-20T00:52:24;95026.34;;;13.56;49.92
35892;BME280;21993;42.672;23.296;2023-02-20T00:54:49;95022.72;;;13.57;50.03
35892;BME280;21993;42.672;23.296;2023-02-20T00:57:15;95020.38;;;13.53;50.58
35892;BME280;21993;42.672;23.296;2023-02-20T00:59:41;95026.25;;;13.47;50.26
35892;BME280;21993;42.672;23.296;2023-02-20T01:02:06;95038.09;;;13.34;50.90
35892;BME280;21993;42.672;23.296;2023-02-20T01:04:32;95047.13;;;13.31;50.64
35892;BME280;21993;42.672;23.296;2023-02-20T01:06:57;95049.91;;;13.20;51.05
35892;BME280;21993;42.672;23.296;2023-02-20T01:09:23;95056.56;;;13.14;51.19
35892;BME280;21993;42.672;23.296;2023-02-20T01:11:48;95058.81;;;13.09;51.57
35892;BME280;21993;42.672;23.296;2023-02-20T01:14:13;95051.03;;;13.08;51.78
35892;BME280;21993;42.672;23.296;2023-02-20T01:16:47;95055.34;;;12.99;51.55
35892;BME280;21993;42.672;23.296;2023-02-20T01:19:13;95053.03;;;12.96;52.13
35892;BME280;21993;42.672;23.296;2023-02-20T01:21:38;95042.47;;;12.96;51.70
35892;BME280;21993;42.672;23.296;2023-02-20T01:24:04;95051.75;;;13.00;51.67
35892;BME280;21993;42.672;23.296;2023-02-20T01:26:29;95043.28;;;13.06;52.05
35892;BME280;21993;42.672;23.296;2023-02-20T01:28:54;95060.50;;;12.91;52.44
35892;BME280;21993;42.672;23.296;2023-02-20T01:31:20;95068.69;;;12.68;53.46
35892;BME280;21993;42.672;23.296;2023-02-20T01:33:45;95078.69;;;12.75;52.92
35892;BME280;21993;42.672;23.296;2023-02-20T01:36:11;95072.44;;;12.85;52.60
35892;BME280;21993;42.672;23.296;2023-02-20T01:38:39;95079.91;;;12.90;53.17
35892;BME280;21993;42.672;23.296;2023-02-20T01:41:06;95081.31;;;12.84;53.01
35892;BME280;21993;42.672;23.296;2023-02-20T01:43:32;95082.56;;;12.90;53.22
35892;BME280;21993;42.672;23.296;2023-02-20T01:48:51;95089.19;;;12.94;53.17
35892;BME280;21993;42.672;23.296;2023-02-20T01:51:17;95091.56;;;12.78;53.91
35892;BME280;21993;42.672;23.296;2023-02-20T01:53:42;95079.81;;;12.62;54.23
35892;BME280;21993;42.672;23.296;2023-02-20T01:56:09;95077.31;;;12.71;54.11
35892;BME280;21993;42.672;23.296;2023-02-20T01:58:39;95091.03;;;12.64;54.36
35892;BME280;21993;42.672;23.296;2023-02-20T02:01:05;95105.44;;;12.51;55.38
35892;BME280;21993;42.672;23.296;2023-02-20T02:03:34;95103.91;;;12.48;54.73
35892;BME280;21993;42.672;23.296;2023-02-20T02:06:06;95107.22;;;12.50;54.99
35892;BME280;21993;42.672;23.296;2023-02-20T02:08:35;95105.84;;;12.36;55.44
35892;BME280;21993;42.672;23.296;2023-02-20T02:11:10;95101.13;;;12.40;55.66
35892;BME280;21993;42.672;23.296;2023-02-20T02:13:37;95116.91;;;12.30;55.55
35892;BME280;21993;42.672;23.296;2023-02-20T02:25:49;95096.00;;;12.48;53.96
35892;BME280;21993;42.672;23.296;2023-02-20T02:37:23;95129.38;;;12.28;53.77
35892;BME280;21993;42.672;23.296;2023-02-20T02:43:05;95129.91;;;12.13;53.78
35892;BME280;21993;42.672;23.296;2023-02-20T02:45:51;95122.53;;;12.06;53.95
35892;BME280;21993;42.672;23.296;2023-02-20T02:48:27;95113.03;;;12.25;53.70
35892;BME280;21993;42.672;23.296;2023-02-20T02:51:00;95128.50;;;12.18;53.90
35892;BME280;21993;42.672;23.296;2023-02-20T02:53:27;95129.31;;;12.09;53.76
35892;BME280;21993;42.672;23.296;2023-02-20T02:55:53;95125.69;;;12.00;54.45
35892;BME280;21993;42.672;23.296;2023-02-20T02:58:19;95122.69;;;12.05;54.31
35892;BME280;21993;42.672;23.296;2023-02-20T03:00:55;95117.41;;;11.95;54.51
35892;BME280;21993;42.672;23.296;2023-02-20T03:03:31;95112.41;;;12.02;54.38
35892;BME280;21993;42.672;23.296;2023-02-20T03:06:24;95113.25;;;12.02;53.84
35892;BME280;21993;42.672;23.296;2023-02-20T03:09:01;95115.13;;;11.81;54.45
35892;BME280;21993;42.672;23.296;2023-02-20T03:11:29;95114.84;;;11.84;54.59
35892;BME280;21993;42.672;23.296;2023-02-20T03:19:41;95140.34;;;11.63;54.88
35892;BME280;21993;42.672;23.296;2023-02-20T03:22:19;95138.38;;;11.55;54.95
35892;BME280;21993;42.672;23.296;2023-02-20T03:24:49;95151.69;;;11.63;54.63
35892;BME280;21993;42.672;23.296;2023-02-20T03:30:21;95156.81;;;11.65;54.43
35892;BME280;21993;42.672;23.296;2023-02-20T03:32:51;95169.97;;;11.65;54.60
35892;BME280;21993;42.672;23.296;2023-02-20T03:35:38;95161.25;;;11.64;54.29
35892;BME280;21993;42.672;23.296;2023-02-20T03:38:24;95179.84;;;11.72;54.37
35892;BME280;21993;42.672;23.296;2023-02-20T03:41:10;95172.25;;;11.79;54.15
35892;BME280;21993;42.672;23.296;2023-02-20T03:43:58;95170.81;;;11.65;54.17
35892;BME280;21993;42.672;23.296;2023-02-20T03:46:24;95178.13;;;11.62;54.09
35892;BME280;21993;42.672;23.296;2023-02-20T03:49:08;95172.31;;;11.68;53.75
35892;BME280;21993;42.672;23.296;2023-02-20T03:51:36;95175.69;;;11.70;53.75
35892;BME280;21993;42.672;23.296;2023-02-20T03:54:01;95184.91;;;11.43;54.57
35892;BME280;21993;42.672;23.296;2023-02-20T03:56:31;95178.78;;;11.33;54.62
35892;BME280;21993;42.672;23.296;2023-02-20T03:59:06;95193.53;;;11.45;54.30
35892;BME280;21993;42.672;23.296;2023-02-20T04:01:36;95200.44;;;11.46;54.07
35892;BME280;21993;42.672;23.296;2023-02-20T04:04:04;95199.44;;;11.38;54.42
35892;BME280;21993;42.672;23.296;2023-02-20T04:06:33;95197.63;;;11.38;54.11
35892;BME280;21993;42.672;23.296;2023-02-20T04:09:09;95205.47;;;11.28;54.43
35892;BME280;21993;42.672;23.296;2023-02-20T04:11:42;95205.38;;;11.19;54.54
35892;BME280;21993;42.672;23.296;2023-02-20T04:14:10;95195.59;;;11.10;54.48
35892;BME280;21993;42.672;23.296;2023-02-20T04:16:45;95192.66;;;11.35;54.18
35892;BME280;21993;42.672;23.296;2023-02-20T04:19:12;95190.81;;;11.15;54.78
35892;BME280;21993;42.672;23.296;2023-02-20T04:21:41;95186.72;;;11.22;54.62
35892;BME280;21993;42.672;23.296;2023-02-20T04:24:14;95184.28;;;11.30;54.20
35892;BME280;21993;42.672;23.296;2023-02-20T04:26:41;95198.53;;;11.27;54.12
35892;BME280;21993;42.672;23.296;2023-02-20T04:29:06;95204.44;;;11.20;54.36
35892;BME280;21993;42.672;23.296;2023-02-20T04:31:32;95208.84;;;11.19;54.62
35892;BME280;21993;42.672;23.296;2023-02-20T04:33:57;95205.78;;;11.35;54.42
35892;BME280;21993;42.672;23.296;2023-02-20T04:36:24;95210.31;;;11.33;54.23
35892;BME280;21993;42.672;23.296;2023-02-20T04:38:50;95204.50;;;11.30;54.28
35892;BME280;21993;42.672;23.296;2023-02-20T04:41:16;95206.16;;;11.31;54.74
35892;BME280;21993;42.672;23.296;2023-02-20T04:43:41;95199.09;;;11.31;54.09
35892;BME280;21993;42.672;23.296;2023-02-20T04:46:07;95194.75;;;11.20;53.93
35892;BME280;21993;42.672;23.296;2023-02-20T04:48:32;95193.44;;;11.15;54.07
35892;BME280;21993;42.672;23.296;2023-02-20T04:50:57;95198.13;;;11.11;53.68
35892;BME280;21993;42.672;23.296;2023-02-20T04:53:23;95193.94;;;10.88;53.75
35892;BME280;21993;42.672;23.296;2023-02-20T04:55:48;95206.69;;;10.92;53.38
35892;BME280;21993;42.672;23.296;2023-02-20T04:58:13;95213.41;;;10.85;53.39
35892;BME280;21993;42.672;23.296;2023-02-20T05:00:39;95235.56;;;10.92;53.19
35892;BME280;21993;42.672;23.296;2023-02-20T05:03:04;95228.22;;;10.86;52.70
35892;BME280;21993;42.672;23.296;2023-02-20T05:05:29;95221.38;;;10.95;52.80
35892;BME280;21993;42.672;23.296;2023-02-20T05:07:57;95237.97;;;10.95;52.21
35892;BME280;21993;42.672;23.296;2023-02-20T05:10:23;95252.69;;;10.87;52.28
35892;BME280;21993;42.672;23.296;2023-02-20T05:12:49;95245.44;;;11.00;52.13
35892;BME280;21993;42.672;23.296;2023-02-20T05:15:14;95240.59;;;10.84;51.82
35892;BME280;21993;42.672;23.296;2023-02-20T05:17:40;95239.16;;;10.91;51.46
35892;BME280;21993;42.672;23.296;2023-02-20T05:20:06;95258.84;;;10.97;51.04
35892;BME280;21993;42.672;23.296;2023-02-20T05:22:32;95256.34;;;10.95;51.05
35892;BME280;21993;42.672;23.296;2023-02-20T05:24:57;95247.22;;;10.79;51.28
35892;BME280;21993;42.672;23.296;2023-02-20T05:27:23;95260.34;;;10.67;51.58
35892;BME280;21993;42.672;23.296;2023-02-20T05:29:54;95261.31;;;10.78;51.46
35892;BME280;21993;42.672;23.296;2023-02-20T05:32:21;95262.66;;;10.61;51.82
35892;BME280;21993;42.672;23.296;2023-02-20T05:34:48;95261.91;;;10.59;52.18
35892;BME280;21993;42.672;23.296;2023-02-20T05:37:14;95276.69;;;10.71;51.70
35892;BME280;21993;42.672;23.296;2023-02-20T05:39:40;95277.88;;;10.67;51.95
35892;BME280;21993;42.672;23.296;2023-02-20T05:42:06;95287.91;;;10.73;52.25
35892;BME280;21993;42.672;23.296;2023-02-20T05:44:32;95287.78;;;10.75;52.48
35892;BME280;21993;42.672;23.296;2023-02-20T05:46:58;95289.34;;;10.77;52.66
35892;BME280;21993;42.672;23.296;2023-02-20T05:49:23;95287.34;;;10.69;53.47
35892;BME280;21993;42.672;23.296;2023-02-20T05:51:49;95280.03;;;10.73;53.03
35892;BME280;21993;42.672;23.296;2023-02-20T05:54:16;95279.91;;;10.86;52.79
35892;BME280;21993;42.672;23.296;2023-02-20T05:56:42;95272.59;;;10.89;53.11
35892;BME280;21993;42.672;23.296;2023-02-20T05:59:07;95268.13;;;11.01;52.72
35892;BME280;21993;42.672;23.296;2023-02-20T06:01:33;95270.03;;;11.10;52.51
35892;BME280;21993;42.672;23.296;2023-02-20T06:03:59;95257.72;;;11.11;52.19
35892;BME280;21993;42.672;23.296;2023-02-20T06:06:34;95276.34;;;11.08;51.81
35892;BME280;21993;42.672;23.296;2023-02-20T06:09:01;95286.81;;;10.87;51.74
35892;BME280;21993;42.672;23.296;2023-02-20T06:11:27;95289.34;;;10.66;51.63
35892;BME280;21993;42.672;23.296;2023-02-20T06:13:52;95292.19;;;10.85;51.20
35892;BME280;21993;42.672;23.296;2023-02-20T06:16:23;95303.22;;;10.68;51.08
35892;BME280;21993;42.672;23.296;2023-02-20T06:18:50;95297.84;;;10.69;50.86
35892;BME280;21993;42.672;23.296;2023-02-20T06:21:16;95297.78;;;10.92;50.65
35892;BME280;21993;42.672;23.296;2023-02-20T06:23:43;95287.63;;;10.98;50.37
35892;BME280;21993;42.672;23.296;2023-02-20T06:26:10;95276.34;;;11.08;50.37
35892;BME280;21993;42.672;23.296;2023-02-20T06:28:36;95281.00;;;11.15;50.18
35892;BME280;21993;42.672;23.296;2023-02-20T06:31:02;95291.13;;;11.20;50.13
35892;BME280;21993;42.672;23.296;2023-02-20T06:33:28;95294.47;;;11.22;50.35
35892;BME280;21993;42.672;23.296;2023-02-20T06:35:54;95307.91;;;11.40;49.54
35892;BME280;21993;42.672;23.296;2023-02-20T06:38:19;95298.13;;;11.31;48.61
35892;BME280;21993;42.672;23.296;2023-02-20T06:40:45;95302.31;;;11.33;48.73
35892;BME280;21993;42.672;23.296;2023-02-20T06:43:10;95308.16;;;11.37;48.24
35892;BME280;21993;42.672;23.296;2023-02-20T06:45:35;95319.63;;;11.36;48.64
35892;BME280;21993;42.672;23.296;2023-02-20T06:48:02;95299.03;;;11.20;48.26
35892;BME280;21993;42.672;23.296;2023-02-20T06:50:27;95307.00;;;11.30;48.41
35892;BME280;21993;42.672;23.296;2023-02-20T06:52:53;95309.75;;;11.17;48.63
35892;BME280;21993;42.672;23.296;2023-02-20T06:55:18;95316.53;;;11.31;48.45
35892;BME280;21993;42.672;23.296;2023-02-20T06:57:44;95320.13;;;11.30;48.84
35892;BME280;21993;42.672;23.296;2023-02-20T07:00:10;95332.03;;;11.34;48.74
35892;BME280;21993;42.672;23.296;2023-02-20T07:02:35;95332.59;;;11.48;48.22
35892;BME280;21993;42.672;23.296;2023-02-20T07:05:02;95320.50;;;11.25;48.72
35892;BME280;21993;42.672;23.296;2023-02-20T07:07:28;95326.31;;;11.40;48.44
35892;BME280;21993;42.672;23.296;2023-02-20T07:09:53;95317.28;;;11.53;47.91
35892;BME280;21993;42.672;23.296;2023-02-20T07:12:19;95329.34;;;11.56;47.52
35892;BME280;21993;42.672;23.296;2023-02-20T07:14:44;95331.81;;;11.69;47.02
35892;BME280;21993;42.672;23.296;2023-02-20T07:17:10;95327.94;;;11.73;46.32
35892;BME280;21993;42.672;23.296;2023-02-20T07:19:35;95346.63;;;11.70;45.39
35892;BME280;21993;42.672;23.296;2023-02-20T07:22:00;95334.75;;;11.75;44.98
35892;BME280;21993;42.672;23.296;2023-02-20T07:24:26;95327.34;;;11.80;44.92
35892;BME280;21993;42.672;23.296;2023-02-20T07:26:52;95335.13;;;11.71;44.68
35892;BME280;21993;42.672;23.296;2023-02-20T07:29:18;95329.97;;;11.80;45.09
35892;BME280;21993;42.672;23.296;2023-02-20T07:31:44;95336.72;;;11.94;44.13
35892;BME280;21993;42.672;23.296;2023-02-20T07:34:09;95357.25;;;12.00;43.69
35892;BME280;21993;42.672;23.296;2023-02-20T07:36:35;95343.81;;;11.82;43.94
35892;BME280;21993;42.672;23.296;2023-02-20T07:39:01;95339.16;;;11.86;43.85
35892;BME280;21993;42.672;23.296;2023-02-20T07:41:29;95343.81;;;11.82;43.87
35892;BME280;21993;42.672;23.296;2023-02-20T07:43:56;95336.41;;;11.88;43.47
35892;BME280;21993;42.672;23.296;2023-02-20T07:46:22;95346.31;;;11.84;43.32
35892;BME280;21993;42.672;23.296;2023-02-20T07:48:48;95346.78;;;11.89;43.11
35892;BME280;21993;42.672;23.296;2023-02-20T07:51:14;95352.63;;;11.93;42.95
35892;BME280;21993;42.672;23.296;2023-02-20T07:53:40;95352.75;;;12.12;42.86
35892;BME280;21993;42.672;23.296;2023-02-20T07:56:11;95366.88;;;12.11;42.73
35892;BME280;21993;42.672;23.296;2023-02-20T07:58:36;95362.25;;;12.24;42.59
35892;BME280;21993;42.672;23.296;2023-02-20T08:01:02;95363.44;;;12.41;42.31
35892;BME280;21993;42.672;23.296;2023-02-20T08:03:27;95360.72;;;12.52;42.30
35892;BME280;21993;42.672;23.296;2023-02-20T08:05:52;95362.41;;;12.53;41.58
35892;BME280;21993;42.672;23.296;2023-02-20T08:08:18;95361.50;;;12.64;41.89
35892;BME280;21993;42.672;23.296;2023-02-20T08:10:43;95355.75;;;12.89;40.85
35892;BME280;21993;42.672;23.296;2023-02-20T08:13:09;95360.91;;;13.01;40.83
35892;BME280;21993;42.672;23.296;2023-02-20T08:15:34;95352.88;;;13.02;40.13
35892;BME280;21993;42.672;23.296;2023-02-20T08:17:59;95360.38;;;13.07;40.22
35892;BME280;21993;42.672;23.296;2023-02-20T08:20:25;95360.94;;;13.10;39.67
35892;BME280;21993;42.672;23.296;2023-02-20T08:22:50;95381.16;;;13.31;40.32
35892;BME280;21993;42.672;23.296;2023-02-20T08:25:16;95368.97;;;13.49;39.86
35892;BME280;21993;42.672;23.296;2023-02-20T08:27:44;95360.22;;;13.58;39.37
35892;BME280;21993;42.672;23.296;2023-02-20T08:30:13;95365.25;;;13.71;39.25
35892;BME280;21993;42.672;23.296;2023-02-20T08:32:39;95359.25;;;13.69;39.15
35892;BME280;21993;42.672;23.296;2023-02-20T08:35:05;95369.69;;;13.80;38.83
35892;BME280;21993;42.672;23.296;2023-02-20T08:37:30;95368.56;;;13.83;39.35
35892;BME280;21993;42.672;23.296;2023-02-20T08:39:56;95364.69;;;13.96;38.61
35892;BME280;21993;42.672;23.296;2023-02-20T08:42:21;95363.13;;;14.03;38.60
35892;BME280;21993;42.672;23.296;2023-02-20T08:44:46;95357.97;;;14.12;38.96
35892;BME280;21993;42.672;23.296;2023-02-20T08:47:12;95362.44;;;14.01;38.91
35892;BME280;21993;42.672;23.296;2023-02-20T08:49:37;95360.78;;;14.00;38.66
35892;BME280;21993;42.672;23.296;2023-02-20T08:52:03;95355.78;;;14.07;38.69
35892;BME280;21993;42.672;23.296;2023-02-20T08:54:30;95360.34;;;14.15;38.61
35892;BME280;21993;42.672;23.296;2023-02-20T08:56:55;95340.22;;;14.14;38.41
35892;BME280;21993;42.672;23.296;2023-02-20T08:59:21;95362.16;;;14.24;38.49
35892;BME280;21993;42.672;23.296;2023-02-20T09:01:46;95367.97;;;14.47;37.88
35892;BME280;21993;42.672;23.296;2023-02-20T09:04:12;95349.88;;;14.52;37.40
35892;BME280;21993;42.672;23.296;2023-02-20T09:06:37;95374.16;;;14.65;37.49
35892;BME280;21993;42.672;23.296;2023-02-20T09:09:03;95345.81;;;14.57;36.99
35892;BME280;21993;42.672;23.296;2023-02-20T09:11:28;95357.22;;;14.58;37.09
35892;BME280;21993;42.672;23.296;2023-02-20T09:13:54;95368.63;;;14.58;37.29
35892;BME280;21993;42.672;23.296;2023-02-20T09:16:21;95341.06;;;14.61;37.03
35892;BME280;21993;42.672;23.296;2023-02-20T09:18:47;95364.66;;;14.82;36.54
35892;BME280;21993;42.672;23.296;2023-02-20T09:21:16;95368.78;;;14.57;36.81
35892;BME280;21993;42.672;23.296;2023-02-20T09:23:41;95360.16;;;14.45;37.15
35892;BME280;21993;42.672;23.296;2023-02-20T09:26:07;95365.16;;;14.58;37.04
35892;BME280;21993;42.672;23.296;2023-02-20T09:28:32;95353.91;;;14.56;37.08
35892;BME280;21993;42.672;23.296;2023-02-20T09:30:58;95351.22;;;14.66;36.79
35892;BME280;21993;42.672;23.296;2023-02-20T09:33:26;95360.53;;;14.60;37.16
35892;BME280;21993;42.672;23.296;2023-02-20T09:35:52;95370.94;;;14.71;36.81
35892;BME280;21993;42.672;23.296;2023-02-20T09:38:19;95349.47;;;14.84;36.81
35892;BME280;21993;42.672;23.296;2023-02-20T09:40:48;95368.28;;;14.71;37.27
35892;BME280;21993;42.672;23.296;2023-02-20T09:45:55;95353.03;;;14.65;37.49
35892;BME280;21993;42.672;23.296;2023-02-20T09:48:33;95354.13;;;14.72;37.26
35892;BME280;21993;42.672;23.296;2023-02-20T09:51:03;95353.09;;;14.83;37.79
35892;BME280;21993;42.672;23.296;2023-02-20T09:54:11;95349.72;;;14.90;37.13
35892;BME280;21993;42.672;23.296;2023-02-20T09:56:41;95347.13;;;15.08;36.97
35892;BME280;21993;42.672;23.296;2023-02-20T09:59:19;95346.56;;;15.14;36.65
35892;BME280;21993;42.672;23.296;2023-02-20T10:04:49;95374.41;;;15.09;35.54
35892;BME280;21993;42.672;23.296;2023-02-20T10:07:23;95362.72;;;15.29;35.33
35892;BME280;21993;42.672;23.296;2023-02-20T10:09:49;95369.22;;;15.17;34.88
35892;BME280;21993;42.672;23.296;2023-02-20T10:17:44;95351.31;;;15.29;34.76
35892;BME280;21993;42.672;23.296;2023-02-20T10:20:13;95343.63;;;15.35;33.84
35892;BME280;21993;42.672;23.296;2023-02-20T10:23:04;95343.03;;;15.41;33.54
35892;BME280;21993;42.672;23.296;2023-02-20T10:25:39;95335.31;;;15.30;33.57
35892;BME280;21993;42.672;23.296;2023-02-20T10:28:14;95333.13;;;15.26;33.55
35892;BME280;21993;42.672;23.296;2023-02-20T10:30:50;95328.06;;;15.32;33.73
35892;BME280;21993;42.672;23.296;2023-02-20T10:33:46;95316.84;;;15.38;33.72
35892;BME280;21993;42.672;23.296;2023-02-20T10:39:05;95318.63;;;15.47;32.97
35892;BME280;21993;42.672;23.296;2023-02-20T10:41:32;95312.81;;;15.62;33.14
35892;BME280;21993;42.672;23.296;2023-02-20T10:44:14;95316.75;;;15.58;32.96
35892;BME280;21993;42.672;23.296;2023-02-20T10:46:50;95315.84;;;15.49;33.06
35892;BME280;21993;42.672;23.296;2023-02-20T10:49:32;95323.09;;;15.47;32.57
35892;BME280;21993;42.672;23.296;2023-02-20T10:52:01;95320.38;;;15.57;32.99
35892;BME280;21993;42.672;23.296;2023-02-20T10:54:42;95315.47;;;15.62;32.94
35892;BME280;21993;42.672;23.296;2023-02-20T10:57:26;95318.19;;;15.70;33.26
35892;BME280;21993;42.672;23.296;2023-02-20T10:59:56;95305.03;;;15.78;32.77
35892;BME280;21993;42.672;23.296;2023-02-20T11:02:29;95316.28;;;15.80;33.08
35892;BME280;21993;42.672;23.296;2023-02-20T11:05:02;95329.75;;;15.87;33.04
35892;BME280;21993;42.672;23.296;2023-02-20T11:07:30;95310.03;;;15.81;33.07
35892;BME280;21993;42.672;23.296;2023-02-20T11:09:55;95306.38;;;16.00;33.16
35892;BME280;21993;42.672;23.296;2023-02-20T11:12:36;95296.28;;;16.03;33.26
35892;BME280;21993;42.672;23.296;2023-02-20T11:15:11;95293.31;;;16.24;33.21
35892;BME280;21993;42.672;23.296;2023-02-20T11:17:38;95284.94;;;16.37;33.03
35892;BME280;21993;42.672;23.296;2023-02-20T11:20:07;95298.34;;;16.36;33.08
35892;BME280;21993;42.672;23.296;2023-02-20T11:22:50;95294.81;;;16.27;32.95
35892;BME280;21993;42.672;23.296;2023-02-20T11:25:22;95293.19;;;16.34;32.95
35892;BME280;21993;42.672;23.296;2023-02-20T11:27:52;95271.88;;;16.44;32.85
35892;BME280;21993;42.672;23.296;2023-02-20T11:30:29;95278.34;;;16.41;33.10
35892;BME280;21993;42.672;23.296;2023-02-20T11:33:01;95268.19;;;16.37;33.13
35892;BME280;21993;42.672;23.296;2023-02-20T11:35:30;95282.69;;;16.50;33.28
35892;BME280;21993;42.672;23.296;2023-02-20T11:41:01;95253.25;;;16.61;32.85
35892;BME280;21993;42.672;23.296;2023-02-20T11:43:34;95258.19;;;16.82;32.74
35892;BME280;21993;42.672;23.296;2023-02-20T11:46:21;95262.16;;;16.86;32.59
35892;BME280;21993;42.672;23.296;2023-02-20T11:51:41;95271.28;;;16.84;32.75
35892;BME280;21993;42.672;23.296;2023-02-20T11:54:18;95268.94;;;16.81;32.19
35892;BME280;21993;42.672;23.296;2023-02-20T11:57:15;95270.66;;;16.98;31.82
35892;BME280;21993;42.672;23.296;2023-02-20T11:59:47;95266.88;;;16.67;32.28
35892;BME280;21993;42.672;23.296;2023-02-20T12:05:08;95281.38;;;16.88;31.92
35892;BME280;21993;42.672;23.296;2023-02-20T12:07:37;95277.63;;;16.99;31.65
35892;BME280;21993;42.672;23.296;2023-02-20T12:12:46;95249.94;;;16.94;31.52
35892;BME280;21993;42.672;23.296;2023-02-20T12:15:14;95238.00;;;17.06;31.33
35892;BME280;21993;42.672;23.296;2023-02-20T12:20:18;95255.91;;;17.04;31.48
35892;BME280;21993;42.672;23.296;2023-02-20T12:28:23;95244.19;;;17.23;31.24
35892;BME280;21993;42.672;23.296;2023-02-20T12:33:54;95251.88;;;17.42;31.35
35892;BME280;21993;42.672;23.296;2023-02-20T12:36:49;95248.81;;;17.12;31.58
35892;BME280;21993;42.672;23.296;2023-02-20T12:39:27;95258.28;;;17.31;31.42
35892;BME280;21993;42.672;23.296;2023-02-20T12:47:32;95267.44;;;17.37;31.18
35892;BME280;21993;42.672;23.296;2023-02-20T12:50:33;95264.13;;;17.35;31.84
35892;BME280;21993;42.672;23.296;2023-02-20T13:01:09;95237.91;;;17.64;31.38
35892;BME280;21993;42.672;23.296;2023-02-20T13:06:43;95234.81;;;17.77;31.29
35892;BME280;21993;42.672;23.296;2023-02-20T13:11:42;95249.09;;;17.76;31.36
35892;BME280;21993;42.672;23.296;2023-02-20T13:19:41;95259.88;;;17.75;30.37
35892;BME280;21993;42.672;23.296;2023-02-20T13:22:08;95266.50;;;17.87;30.21
35892;BME280;21993;42.672;23.296;2023-02-20T13:24:35;95277.13;;;17.79;30.15
35892;BME280;21993;42.672;23.296;2023-02-20T13:27:06;95276.13;;;17.88;30.08
35892;BME280;21993;42.672;23.296;2023-02-20T13:29:35;95268.81;;;17.73;30.27
35892;BME280;21993;42.672;23.296;2023-02-20T13:32:33;95275.44;;;17.61;30.39
35892;BME280;21993;42.672;23.296;2023-02-20T13:38:18;95267.28;;;17.55;31.01
35892;BME280;21993;42.672;23.296;2023-02-20T13:41:08;95274.38;;;17.30;31.42
35892;BME280;21993;42.672;23.296;2023-02-20T13:43:34;95266.88;;;17.09;31.96
35892;BME280;21993;42.672;23.296;2023-02-20T13:56:23;95279.00;;;16.43;32.88
35892;BME280;21993;42.672;23.296;2023-02-20T13:58:50;95277.09;;;16.27;33.70
35892;BME280;21993;42.672;23.296;2023-02-20T14:01:18;95269.41;;;16.42;33.77
35892;BME280;21993;42.672;23.296;2023-02-20T14:03:44;95270.63;;;16.30;33.87
35892;BME280;21993;42.672;23.296;2023-02-20T14:08:37;95259.88;;;15.80;34.08
35892;BME280;21993;42.672;23.296;2023-02-20T14:13:48;95275.25;;;15.40;35.22
35892;BME280;21993;42.672;23.296;2023-02-20T14:16:41;95271.28;;;15.44;35.00
35892;BME280;21993;42.672;23.296;2023-02-20T14:19:15;95272.53;;;15.68;34.70
35892;BME280;21993;42.672;23.296;2023-02-20T14:21:43;95268.81;;;15.61;34.99
35892;BME280;21993;42.672;23.296;2023-02-20T14:24:25;95286.41;;;15.34;35.58
35892;BME280;21993;42.672;23.296;2023-02-20T14:26:52;95290.63;;;15.27;35.89
35892;BME280;21993;42.672;23.296;2023-02-20T14:29:28;95295.56;;;15.22;36.01
35892;BME280;21993;42.672;23.296;2023-02-20T14:31:56;95294.09;;;15.28;35.83
35892;BME280;21993;42.672;23.296;2023-02-20T14:42:24;95294.25;;;15.08;36.53
35892;BME280;21993;42.672;23.296;2023-02-20T14:44:55;95294.34;;;14.61;37.11
35892;BME280;21993;42.672;23.296;2023-02-20T14:47:22;95304.34;;;14.68;37.10
35892;BME280;21993;42.672;23.296;2023-02-20T14:49:48;95307.56;;;14.61;37.24
35892;BME280;21993;42.672;23.296;2023-02-20T14:52:23;95298.78;;;14.61;37.15
35892;BME280;21993;42.672;23.296;2023-02-20T14:55:03;95305.53;;;14.36;37.77
35892;BME280;21993;42.672;23.296;2023-02-20T14:57:31;95312.34;;;14.39;37.86
35892;BME280;21993;42.672;23.296;2023-02-20T15:02:42;95329.88;;;14.40;38.12
35892;BME280;21993;42.672;23.296;2023-02-20T15:05:13;95332.78;;;14.36;38.02